sensor_id;sensor_type;location;lat;lon;timestamp;temperature;humidity
21335;DHT22;10826;52.536;13.432;2022-08-02T00:01:53;23.60;48.30
21335;DHT22;10826;52.536;13.432;2022-08-02T00:04:19;23.60;48.20
21335;DHT22;10826;52.536;13.432;2022-08-02T00:06:45;23.60;48.20
21335;DHT22;10826;52.536;13.432;2022-08-02T00:09:11;23.60;48.10
21335;DHT22;10826;52.536;13.432;2022-08-02T00:11:37;23.50;48.20
21335;DHT22;10826;52.536;13.432;2022-08-02T00:14:04;23.50;48.30
21335;DHT22;10826;52.536;13.432;2022-08-02T00:16:30;23.50;48.40
21335;DHT22;10826;52.536;13.432;2022-08-02T00:18:56;23.40;48.50
21335;DHT22;10826;52.536;13.432;2022-08-02T00:21:23;23.40;48.50
21335;DHT22;10826;52.536;13.432;2022-08-02T00:23:49;23.40;48.50
21335;DHT22;10826;52.536;13.432;2022-08-02T00:26:15;23.40;48.70
21335;DHT22;10826;52.536;13.432;2022-08-02T00:28:41;23.40;48.60
21335;DHT22;10826;52.536;13.432;2022-08-02T00:31:07;23.40;48.60
21335;DHT22;10826;52.536;13.432;2022-08-02T00:33:33;23.30;48.70
21335;DHT22;10826;52.536;13.432;2022-08-02T00:36:02;23.30;48.80
21335;DHT22;10826;52.536;13.432;2022-08-02T00:38:29;23.30;48.90
21335;DHT22;10826;52.536;13.432;2022-08-02T00:40:55;23.30;48.70
21335;DHT22;10826;52.536;13.432;2022-08-02T00:43:21;23.30;48.70
21335;DHT22;10826;52.536;13.432;2022-08-02T00:45:47;23.30;48.50
21335;DHT22;10826;52.536;13.432;2022-08-02T00:48:13;23.30;48.60
21335;DHT22;10826;52.536;13.432;2022-08-02T00:50:40;23.30;48.50
21335;DHT22;10826;52.536;13.432;2022-08-02T00:53:07;23.20;48.30
21335;DHT22;10826;52.536;13.432;2022-08-02T00:55:35;23.20;48.20
21335;DHT22;10826;52.536;13.432;2022-08-02T00:58:02;23.20;48.10
21335;DHT22;10826;52.536;13.432;2022-08-02T01:00:29;23.20;48.10
21335;DHT22;10826;52.536;13.432;2022-08-02T01:02:55;23.20;48.00
21335;DHT22;10826;52.536;13.432;2022-08-02T01:05:21;23.20;48.10
21335;DHT22;10826;52.536;13.432;2022-08-02T01:07:48;23.10;47.90
21335;DHT22;10826;52.536;13.432;2022-08-02T01:10:14;23.10;47.90
21335;DHT22;10826;52.536;13.432;2022-08-02T01:12:40;23.10;48.00
21335;DHT22;10826;52.536;13.432;2022-08-02T01:15:09;23.10;48.00
21335;DHT22;10826;52.536;13.432;2022-08-02T01:18:02;23.10;47.90
21335;DHT22;10826;52.536;13.432;2022-08-02T01:23:50;23.00;48.00
21335;DHT22;10826;52.536;13.432;2022-08-02T01:26:50;22.90;48.10
21335;DHT22;10826;52.536;13.432;2022-08-02T01:29:40;22.90;48.10
21335;DHT22;10826;52.536;13.432;2022-08-02T01:32:18;22.90;48.00
21335;DHT22;10826;52.536;13.432;2022-08-02T01:35:05;22.90;48.20
21335;DHT22;10826;52.536;13.432;2022-08-02T01:37:58;22.90;48.30
21335;DHT22;10826;52.536;13.432;2022-08-02T01:40:43;22.90;47.70
21335;DHT22;10826;52.536;13.432;2022-08-02T01:43:11;22.90;47.70
21335;DHT22;10826;52.536;13.432;2022-08-02T01:45:40;22.90;47.60
21335;DHT22;10826;52.536;13.432;2022-08-02T01:48:09;22.80;47.30
21335;DHT22;10826;52.536;13.432;2022-08-02T01:50:38;22.80;47.30
21335;DHT22;10826;52.536;13.432;2022-08-02T01:53:08;22.80;47.00
21335;DHT22;10826;52.536;13.432;2022-08-02T01:55:42;22.80;47.00
21335;DHT22;10826;52.536;13.432;2022-08-02T01:58:10;22.80;46.90
21335;DHT22;10826;52.536;13.432;2022-08-02T02:00:40;22.80;46.90
21335;DHT22;10826;52.536;13.432;2022-08-02T02:03:14;22.80;46.40
21335;DHT22;10826;52.536;13.432;2022-08-02T02:05:49;22.80;46.30
21335;DHT22;10826;52.536;13.432;2022-08-02T02:08:22;22.80;46.10
21335;DHT22;10826;52.536;13.432;2022-08-02T02:10:52;22.80;46.10
21335;DHT22;10826;52.536;13.432;2022-08-02T02:13:20;22.70;46.00
21335;DHT22;10826;52.536;13.432;2022-08-02T02:15:47;22.80;45.90
21335;DHT22;10826;52.536;13.432;2022-08-02T02:18:24;22.70;45.80
21335;DHT22;10826;52.536;13.432;2022-08-02T02:20:52;22.70;45.60
21335;DHT22;10826;52.536;13.432;2022-08-02T02:23:19;22.80;45.20
21335;DHT22;10826;52.536;13.432;2022-08-02T02:25:46;22.70;44.90
21335;DHT22;10826;52.536;13.432;2022-08-02T02:28:20;22.80;44.80
21335;DHT22;10826;52.536;13.432;2022-08-02T02:30:51;22.80;44.90
21335;DHT22;10826;52.536;13.432;2022-08-02T02:33:24;22.80;45.20
21335;DHT22;10826;52.536;13.432;2022-08-02T02:35:53;22.70;45.00
21335;DHT22;10826;52.536;13.432;2022-08-02T02:38:23;22.80;44.70
21335;DHT22;10826;52.536;13.432;2022-08-02T02:40:55;22.70;44.50
21335;DHT22;10826;52.536;13.432;2022-08-02T02:43:27;22.70;44.50
21335;DHT22;10826;52.536;13.432;2022-08-02T02:45:59;22.70;44.40
21335;DHT22;10826;52.536;13.432;2022-08-02T02:48:28;22.70;44.20
21335;DHT22;10826;52.536;13.432;2022-08-02T02:50:55;22.70;44.20
21335;DHT22;10826;52.536;13.432;2022-08-02T02:53:23;22.70;44.30
21335;DHT22;10826;52.536;13.432;2022-08-02T02:55:51;22.70;44.00
21335;DHT22;10826;52.536;13.432;2022-08-02T02:58:19;22.70;43.80
21335;DHT22;10826;52.536;13.432;2022-08-02T03:00:45;22.70;43.70
21335;DHT22;10826;52.536;13.432;2022-08-02T03:03:31;22.70;43.70
21335;DHT22;10826;52.536;13.432;2022-08-02T03:05:58;22.70;43.60
21335;DHT22;10826;52.536;13.432;2022-08-02T03:08:24;22.70;43.90
21335;DHT22;10826;52.536;13.432;2022-08-02T03:10:51;22.70;44.10
21335;DHT22;10826;52.536;13.432;2022-08-02T03:13:18;22.80;44.20
21335;DHT22;10826;52.536;13.432;2022-08-02T03:15:45;22.80;44.10
21335;DHT22;10826;52.536;13.432;2022-08-02T03:18:35;22.80;44.00
21335;DHT22;10826;52.536;13.432;2022-08-02T03:21:11;22.80;43.80
21335;DHT22;10826;52.536;13.432;2022-08-02T03:23:44;22.70;44.00
21335;DHT22;10826;52.536;13.432;2022-08-02T03:26:14;22.70;44.00
21335;DHT22;10826;52.536;13.432;2022-08-02T03:28:40;22.70;44.10
21335;DHT22;10826;52.536;13.432;2022-08-02T03:31:08;22.70;44.10
21335;DHT22;10826;52.536;13.432;2022-08-02T03:33:38;22.70;44.20
21335;DHT22;10826;52.536;13.432;2022-08-02T03:36:10;22.70;44.10
21335;DHT22;10826;52.536;13.432;2022-08-02T03:38:43;22.60;44.10
21335;DHT22;10826;52.536;13.432;2022-08-02T03:41:13;22.60;44.40
21335;DHT22;10826;52.536;13.432;2022-08-02T03:43:44;22.60;44.70
21335;DHT22;10826;52.536;13.432;2022-08-02T03:46:16;22.60;44.90
21335;DHT22;10826;52.536;13.432;2022-08-02T03:48:53;22.50;45.30
21335;DHT22;10826;52.536;13.432;2022-08-02T03:51:23;22.50;45.50
21335;DHT22;10826;52.536;13.432;2022-08-02T03:53:50;22.40;45.60
21335;DHT22;10826;52.536;13.432;2022-08-02T03:56:19;22.40;46.00
21335;DHT22;10826;52.536;13.432;2022-08-02T03:58:48;22.40;46.20
21335;DHT22;10826;52.536;13.432;2022-08-02T04:01:15;22.40;46.40
21335;DHT22;10826;52.536;13.432;2022-08-02T04:03:41;22.40;46.50
21335;DHT22;10826;52.536;13.432;2022-08-02T04:06:07;22.50;46.80
21335;DHT22;10826;52.536;13.432;2022-08-02T04:08:33;22.40;46.80
21335;DHT22;10826;52.536;13.432;2022-08-02T04:10:59;22.40;46.90
21335;DHT22;10826;52.536;13.432;2022-08-02T04:13:44;22.40;46.70
21335;DHT22;10826;52.536;13.432;2022-08-02T04:16:15;22.50;46.50
21335;DHT22;10826;52.536;13.432;2022-08-02T04:18:50;22.50;46.40
21335;DHT22;10826;52.536;13.432;2022-08-02T04:21:28;22.50;46.10
21335;DHT22;10826;52.536;13.432;2022-08-02T04:24:00;22.50;45.80
21335;DHT22;10826;52.536;13.432;2022-08-02T04:26:30;22.60;45.50
21335;DHT22;10826;52.536;13.432;2022-08-02T04:28:59;22.60;45.20
21335;DHT22;10826;52.536;13.432;2022-08-02T04:31:29;22.60;45.10
21335;DHT22;10826;52.536;13.432;2022-08-02T04:33:56;22.50;45.00
21335;DHT22;10826;52.536;13.432;2022-08-02T04:36:23;22.60;44.90
21335;DHT22;10826;52.536;13.432;2022-08-02T04:38:49;22.60;44.80
21335;DHT22;10826;52.536;13.432;2022-08-02T04:41:16;22.60;44.50
21335;DHT22;10826;52.536;13.432;2022-08-02T04:43:42;22.60;44.30
21335;DHT22;10826;52.536;13.432;2022-08-02T04:46:08;22.60;44.10
21335;DHT22;10826;52.536;13.432;2022-08-02T04:48:34;22.60;43.80
21335;DHT22;10826;52.536;13.432;2022-08-02T04:51:06;22.60;43.50
21335;DHT22;10826;52.536;13.432;2022-08-02T04:53:32;22.60;43.50
21335;DHT22;10826;52.536;13.432;2022-08-02T04:56:02;22.60;43.50
21335;DHT22;10826;52.536;13.432;2022-08-02T04:58:28;22.50;43.60
21335;DHT22;10826;52.536;13.432;2022-08-02T05:00:58;22.60;43.70
21335;DHT22;10826;52.536;13.432;2022-08-02T05:03:24;22.50;44.30
21335;DHT22;10826;52.536;13.432;2022-08-02T05:05:50;22.50;44.00
21335;DHT22;10826;52.536;13.432;2022-08-02T05:08:17;22.50;44.40
21335;DHT22;10826;52.536;13.432;2022-08-02T05:10:45;22.50;44.70
21335;DHT22;10826;52.536;13.432;2022-08-02T05:13:20;22.50;44.90
21335;DHT22;10826;52.536;13.432;2022-08-02T05:15:52;22.60;45.10
21335;DHT22;10826;52.536;13.432;2022-08-02T05:18:18;22.60;45.20
21335;DHT22;10826;52.536;13.432;2022-08-02T05:20:44;22.60;45.50
21335;DHT22;10826;52.536;13.432;2022-08-02T05:23:10;22.60;45.50
21335;DHT22;10826;52.536;13.432;2022-08-02T05:25:36;22.60;45.30
21335;DHT22;10826;52.536;13.432;2022-08-02T05:28:02;22.70;45.20
21335;DHT22;10826;52.536;13.432;2022-08-02T05:30:28;22.70;45.00
21335;DHT22;10826;52.536;13.432;2022-08-02T05:32:54;22.70;44.90
21335;DHT22;10826;52.536;13.432;2022-08-02T05:35:22;22.70;45.40
21335;DHT22;10826;52.536;13.432;2022-08-02T05:37:50;22.70;44.60
21335;DHT22;10826;52.536;13.432;2022-08-02T05:40:17;22.70;44.70
21335;DHT22;10826;52.536;13.432;2022-08-02T05:42:44;22.70;44.60
21335;DHT22;10826;52.536;13.432;2022-08-02T05:45:11;22.70;44.50
21335;DHT22;10826;52.536;13.432;2022-08-02T05:47:37;22.70;44.20
21335;DHT22;10826;52.536;13.432;2022-08-02T05:50:06;22.70;44.10
21335;DHT22;10826;52.536;13.432;2022-08-02T05:55:33;22.80;42.60
21335;DHT22;10826;52.536;13.432;2022-08-02T06:00:52;22.80;41.50
21335;DHT22;10826;52.536;13.432;2022-08-02T06:03:29;22.90;41.90
21335;DHT22;10826;52.536;13.432;2022-08-02T06:06:10;22.90;41.90
21335;DHT22;10826;52.536;13.432;2022-08-02T06:08:45;22.90;41.70
21335;DHT22;10826;52.536;13.432;2022-08-02T06:11:16;23.00;41.70
21335;DHT22;10826;52.536;13.432;2022-08-02T06:13:50;23.10;41.70
21335;DHT22;10826;52.536;13.432;2022-08-02T06:16:19;23.10;41.70
21335;DHT22;10826;52.536;13.432;2022-08-02T06:18:47;23.20;41.60
21335;DHT22;10826;52.536;13.432;2022-08-02T06:21:14;23.30;41.50
21335;DHT22;10826;52.536;13.432;2022-08-02T06:23:47;23.30;41.50
21335;DHT22;10826;52.536;13.432;2022-08-02T06:26:14;23.40;41.70
21335;DHT22;10826;52.536;13.432;2022-08-02T06:28:43;23.50;42.00
21335;DHT22;10826;52.536;13.432;2022-08-02T06:31:14;23.60;42.70
21335;DHT22;10826;52.536;13.432;2022-08-02T06:33:41;23.70;41.90
21335;DHT22;10826;52.536;13.432;2022-08-02T06:36:14;23.70;41.60
21335;DHT22;10826;52.536;13.432;2022-08-02T06:41:41;24.00;41.40
21335;DHT22;10826;52.536;13.432;2022-08-02T06:44:07;24.10;40.80
21335;DHT22;10826;52.536;13.432;2022-08-02T06:46:37;24.10;40.50
21335;DHT22;10826;52.536;13.432;2022-08-02T06:49:04;24.20;40.30
21335;DHT22;10826;52.536;13.432;2022-08-02T06:51:32;24.30;40.60
21335;DHT22;10826;52.536;13.432;2022-08-02T06:53:59;24.40;39.90
21335;DHT22;10826;52.536;13.432;2022-08-02T06:56:26;24.50;39.80
21335;DHT22;10826;52.536;13.432;2022-08-02T06:58:52;24.60;39.00
21335;DHT22;10826;52.536;13.432;2022-08-02T07:01:18;24.70;38.90
21335;DHT22;10826;52.536;13.432;2022-08-02T07:03:45;24.70;38.50
21335;DHT22;10826;52.536;13.432;2022-08-02T07:06:11;24.70;38.50
21335;DHT22;10826;52.536;13.432;2022-08-02T07:08:38;24.80;38.40
21335;DHT22;10826;52.536;13.432;2022-08-02T07:11:08;24.80;38.50
21335;DHT22;10826;52.536;13.432;2022-08-02T07:13:35;24.90;38.70
21335;DHT22;10826;52.536;13.432;2022-08-02T07:16:02;25.00;38.60
21335;DHT22;10826;52.536;13.432;2022-08-02T07:18:29;25.10;39.30
21335;DHT22;10826;52.536;13.432;2022-08-02T07:20:55;25.10;38.50
21335;DHT22;10826;52.536;13.432;2022-08-02T07:23:22;25.20;38.40
21335;DHT22;10826;52.536;13.432;2022-08-02T07:25:48;25.30;38.00
21335;DHT22;10826;52.536;13.432;2022-08-02T07:28:14;25.30;37.90
21335;DHT22;10826;52.536;13.432;2022-08-02T07:30:41;25.30;38.10
21335;DHT22;10826;52.536;13.432;2022-08-02T07:33:07;25.30;38.30
21335;DHT22;10826;52.536;13.432;2022-08-02T07:35:34;25.40;38.00
21335;DHT22;10826;52.536;13.432;2022-08-02T07:38:01;25.40;38.10
21335;DHT22;10826;52.536;13.432;2022-08-02T07:40:28;25.50;37.90
21335;DHT22;10826;52.536;13.432;2022-08-02T07:42:56;25.50;37.70
21335;DHT22;10826;52.536;13.432;2022-08-02T07:45:23;25.60;37.70
21335;DHT22;10826;52.536;13.432;2022-08-02T07:47:50;25.60;37.70
21335;DHT22;10826;52.536;13.432;2022-08-02T07:50:18;25.60;37.60
21335;DHT22;10826;52.536;13.432;2022-08-02T07:52:46;25.60;37.40
21335;DHT22;10826;52.536;13.432;2022-08-02T07:55:13;25.70;37.30
21335;DHT22;10826;52.536;13.432;2022-08-02T07:57:40;25.70;37.20
21335;DHT22;10826;52.536;13.432;2022-08-02T08:00:07;25.70;37.10
21335;DHT22;10826;52.536;13.432;2022-08-02T08:02:35;25.80;37.10
21335;DHT22;10826;52.536;13.432;2022-08-02T08:05:01;25.80;37.10
21335;DHT22;10826;52.536;13.432;2022-08-02T08:07:27;25.80;36.90
21335;DHT22;10826;52.536;13.432;2022-08-02T08:09:53;25.80;35.80
21335;DHT22;10826;52.536;13.432;2022-08-02T08:12:19;25.80;35.30
21335;DHT22;10826;52.536;13.432;2022-08-02T08:14:46;25.70;35.60
21335;DHT22;10826;52.536;13.432;2022-08-02T08:17:12;25.70;35.20
21335;DHT22;10826;52.536;13.432;2022-08-02T08:19:38;25.70;35.70
21335;DHT22;10826;52.536;13.432;2022-08-02T08:22:04;25.70;35.50
21335;DHT22;10826;52.536;13.432;2022-08-02T08:24:31;25.60;35.30
21335;DHT22;10826;52.536;13.432;2022-08-02T08:26:59;25.60;35.00
21335;DHT22;10826;52.536;13.432;2022-08-02T08:29:25;25.60;34.90
21335;DHT22;10826;52.536;13.432;2022-08-02T08:31:51;25.70;35.00
21335;DHT22;10826;52.536;13.432;2022-08-02T08:34:18;25.70;34.90
21335;DHT22;10826;52.536;13.432;2022-08-02T08:36:44;25.70;34.80
21335;DHT22;10826;52.536;13.432;2022-08-02T08:39:10;25.70;34.90
21335;DHT22;10826;52.536;13.432;2022-08-02T08:41:36;25.60;34.90
21335;DHT22;10826;52.536;13.432;2022-08-02T08:44:03;25.70;34.90
21335;DHT22;10826;52.536;13.432;2022-08-02T08:46:31;25.60;34.80
21335;DHT22;10826;52.536;13.432;2022-08-02T08:49:21;25.70;34.90
21335;DHT22;10826;52.536;13.432;2022-08-02T08:51:53;25.70;34.90
21335;DHT22;10826;52.536;13.432;2022-08-02T08:54:23;25.70;34.60
21335;DHT22;10826;52.536;13.432;2022-08-02T08:56:54;25.70;34.60
21335;DHT22;10826;52.536;13.432;2022-08-02T08:59:23;25.80;34.80
21335;DHT22;10826;52.536;13.432;2022-08-02T09:01:50;25.80;34.70
21335;DHT22;10826;52.536;13.432;2022-08-02T09:04:18;25.80;34.50
21335;DHT22;10826;52.536;13.432;2022-08-02T09:06:44;25.80;34.20
21335;DHT22;10826;52.536;13.432;2022-08-02T09:09:11;25.90;34.40
21335;DHT22;10826;52.536;13.432;2022-08-02T09:11:37;25.90;34.40
21335;DHT22;10826;52.536;13.432;2022-08-02T09:14:03;25.90;34.30
21335;DHT22;10826;52.536;13.432;2022-08-02T09:16:38;25.90;34.20
21335;DHT22;10826;52.536;13.432;2022-08-02T09:19:22;25.90;34.40
21335;DHT22;10826;52.536;13.432;2022-08-02T09:21:51;25.90;34.30
21335;DHT22;10826;52.536;13.432;2022-08-02T09:24:26;25.90;34.40
21335;DHT22;10826;52.536;13.432;2022-08-02T09:26:52;26.00;34.70
21335;DHT22;10826;52.536;13.432;2022-08-02T09:29:21;25.90;34.20
21335;DHT22;10826;52.536;13.432;2022-08-02T09:31:49;26.00;34.70
21335;DHT22;10826;52.536;13.432;2022-08-02T09:34:17;25.90;34.30
21335;DHT22;10826;52.536;13.432;2022-08-02T09:36:45;26.00;34.70
21335;DHT22;10826;52.536;13.432;2022-08-02T09:39:14;26.00;34.70
21335;DHT22;10826;52.536;13.432;2022-08-02T09:41:43;26.00;34.60
21335;DHT22;10826;52.536;13.432;2022-08-02T09:44:14;26.10;34.60
21335;DHT22;10826;52.536;13.432;2022-08-02T09:46:45;26.10;34.60
21335;DHT22;10826;52.536;13.432;2022-08-02T09:49:15;26.20;34.60
21335;DHT22;10826;52.536;13.432;2022-08-02T09:54:23;26.20;34.30
21335;DHT22;10826;52.536;13.432;2022-08-02T09:56:52;26.30;34.70
21335;DHT22;10826;52.536;13.432;2022-08-02T09:59:21;26.40;34.60
21335;DHT22;10826;52.536;13.432;2022-08-02T10:01:52;26.40;33.70
21335;DHT22;10826;52.536;13.432;2022-08-02T10:04:22;26.40;34.00
21335;DHT22;10826;52.536;13.432;2022-08-02T10:06:52;26.40;34.30
21335;DHT22;10826;52.536;13.432;2022-08-02T10:09:19;26.40;34.30
21335;DHT22;10826;52.536;13.432;2022-08-02T10:11:46;26.50;34.20
21335;DHT22;10826;52.536;13.432;2022-08-02T10:14:12;26.60;34.20
21335;DHT22;10826;52.536;13.432;2022-08-02T10:16:41;26.70;33.80
21335;DHT22;10826;52.536;13.432;2022-08-02T10:19:08;26.70;33.60
21335;DHT22;10826;52.536;13.432;2022-08-02T10:21:49;26.80;33.50
21335;DHT22;10826;52.536;13.432;2022-08-02T10:24:22;26.80;33.40
21335;DHT22;10826;52.536;13.432;2022-08-02T10:26:53;26.90;33.50
21335;DHT22;10826;52.536;13.432;2022-08-02T10:29:26;26.90;33.40
21335;DHT22;10826;52.536;13.432;2022-08-02T10:35:05;27.00;33.50
21335;DHT22;10826;52.536;13.432;2022-08-02T10:37:36;27.00;33.40
21335;DHT22;10826;52.536;13.432;2022-08-02T10:40:05;26.90;32.80
21335;DHT22;10826;52.536;13.432;2022-08-02T10:42:57;26.90;32.80
21335;DHT22;10826;52.536;13.432;2022-08-02T10:45:25;26.90;32.90
21335;DHT22;10826;52.536;13.432;2022-08-02T10:48:03;26.90;32.90
21335;DHT22;10826;52.536;13.432;2022-08-02T10:53:37;26.90;32.70
21335;DHT22;10826;52.536;13.432;2022-08-02T10:56:04;26.90;32.60
21335;DHT22;10826;52.536;13.432;2022-08-02T10:58:32;26.90;32.60
21335;DHT22;10826;52.536;13.432;2022-08-02T11:01:28;26.80;33.20
21335;DHT22;10826;52.536;13.432;2022-08-02T11:03:58;26.90;32.70
21335;DHT22;10826;52.536;13.432;2022-08-02T11:06:25;26.80;32.90
21335;DHT22;10826;52.536;13.432;2022-08-02T11:09:24;26.80;32.90
21335;DHT22;10826;52.536;13.432;2022-08-02T11:12:20;26.90;32.90
21335;DHT22;10826;52.536;13.432;2022-08-02T11:15:07;26.80;32.90
21335;DHT22;10826;52.536;13.432;2022-08-02T11:17:56;26.80;32.70
21335;DHT22;10826;52.536;13.432;2022-08-02T11:20:26;26.80;32.50
21335;DHT22;10826;52.536;13.432;2022-08-02T11:22:53;26.80;32.50
21335;DHT22;10826;52.536;13.432;2022-08-02T11:27:58;26.70;32.50
21335;DHT22;10826;52.536;13.432;2022-08-02T11:30:31;26.80;32.30
21335;DHT22;10826;52.536;13.432;2022-08-02T11:32:59;26.70;32.30
21335;DHT22;10826;52.536;13.432;2022-08-02T11:35:38;26.80;32.30
21335;DHT22;10826;52.536;13.432;2022-08-02T11:38:16;26.80;32.10
21335;DHT22;10826;52.536;13.432;2022-08-02T11:40:47;26.80;32.10
21335;DHT22;10826;52.536;13.432;2022-08-02T11:43:18;26.80;32.00
21335;DHT22;10826;52.536;13.432;2022-08-02T11:45:47;26.80;31.70
21335;DHT22;10826;52.536;13.432;2022-08-02T11:48:35;26.90;31.70
21335;DHT22;10826;52.536;13.432;2022-08-02T11:51:15;27.00;32.00
21335;DHT22;10826;52.536;13.432;2022-08-02T11:56:10;27.00;32.00
21335;DHT22;10826;52.536;13.432;2022-08-02T11:58:37;27.00;32.00
21335;DHT22;10826;52.536;13.432;2022-08-02T12:01:04;27.00;31.60
21335;DHT22;10826;52.536;13.432;2022-08-02T12:03:38;27.00;31.50
21335;DHT22;10826;52.536;13.432;2022-08-02T12:06:05;27.10;32.20
21335;DHT22;10826;52.536;13.432;2022-08-02T12:08:32;27.00;31.40
21335;DHT22;10826;52.536;13.432;2022-08-02T12:11:02;27.10;31.40
21335;DHT22;10826;52.536;13.432;2022-08-02T12:13:41;27.10;31.20
21335;DHT22;10826;52.536;13.432;2022-08-02T12:16:10;27.10;31.30
21335;DHT22;10826;52.536;13.432;2022-08-02T12:18:56;27.10;30.60
21335;DHT22;10826;52.536;13.432;2022-08-02T12:21:42;27.00;30.70
21335;DHT22;10826;52.536;13.432;2022-08-02T12:24:08;27.10;31.00
21335;DHT22;10826;52.536;13.432;2022-08-02T12:26:45;27.10;30.90
21335;DHT22;10826;52.536;13.432;2022-08-02T12:29:13;27.10;30.80
21335;DHT22;10826;52.536;13.432;2022-08-02T12:31:43;27.20;31.00
21335;DHT22;10826;52.536;13.432;2022-08-02T12:34:17;27.20;31.20
21335;DHT22;10826;52.536;13.432;2022-08-02T12:37:06;27.20;31.20
21335;DHT22;10826;52.536;13.432;2022-08-02T12:39:52;27.20;30.90
21335;DHT22;10826;52.536;13.432;2022-08-02T12:42:19;27.30;30.80
21335;DHT22;10826;52.536;13.432;2022-08-02T12:44:54;27.30;30.70
21335;DHT22;10826;52.536;13.432;2022-08-02T12:47:24;27.30;30.70
21335;DHT22;10826;52.536;13.432;2022-08-02T12:50:18;27.30;30.90
21335;DHT22;10826;52.536;13.432;2022-08-02T12:52:50;27.40;30.90
21335;DHT22;10826;52.536;13.432;2022-08-02T12:55:28;27.30;31.10
21335;DHT22;10826;52.536;13.432;2022-08-02T12:57:59;27.30;31.00
21335;DHT22;10826;52.536;13.432;2022-08-02T13:00:35;27.40;30.90
21335;DHT22;10826;52.536;13.432;2022-08-02T13:03:03;27.50;30.80
21335;DHT22;10826;52.536;13.432;2022-08-02T13:05:30;27.50;30.80
21335;DHT22;10826;52.536;13.432;2022-08-02T13:08:01;27.50;30.70
21335;DHT22;10826;52.536;13.432;2022-08-02T13:10:29;27.50;30.70
21335;DHT22;10826;52.536;13.432;2022-08-02T13:12:54;27.50;30.80
21335;DHT22;10826;52.536;13.432;2022-08-02T13:15:21;27.50;30.80
21335;DHT22;10826;52.536;13.432;2022-08-02T13:17:48;27.60;30.80
21335;DHT22;10826;52.536;13.432;2022-08-02T13:20:13;27.60;30.80
21335;DHT22;10826;52.536;13.432;2022-08-02T13:22:40;27.60;30.70
21335;DHT22;10826;52.536;13.432;2022-08-02T13:25:07;27.70;30.50
21335;DHT22;10826;52.536;13.432;2022-08-02T13:27:34;27.70;30.70
21335;DHT22;10826;52.536;13.432;2022-08-02T13:30:04;27.70;30.50
21335;DHT22;10826;52.536;13.432;2022-08-02T13:32:31;27.80;30.30
21335;DHT22;10826;52.536;13.432;2022-08-02T13:35:00;27.80;30.20
21335;DHT22;10826;52.536;13.432;2022-08-02T13:37:34;27.80;30.10
21335;DHT22;10826;52.536;13.432;2022-08-02T13:40:01;27.80;29.80
21335;DHT22;10826;52.536;13.432;2022-08-02T13:42:27;27.90;30.10
21335;DHT22;10826;52.536;13.432;2022-08-02T13:44:53;27.90;30.20
21335;DHT22;10826;52.536;13.432;2022-08-02T13:47:19;27.90;29.90
21335;DHT22;10826;52.536;13.432;2022-08-02T13:49:45;27.90;29.90
21335;DHT22;10826;52.536;13.432;2022-08-02T13:52:11;27.90;29.20
21335;DHT22;10826;52.536;13.432;2022-08-02T13:54:38;27.90;28.90
21335;DHT22;10826;52.536;13.432;2022-08-02T13:57:04;27.90;29.20
21335;DHT22;10826;52.536;13.432;2022-08-02T13:59:30;28.00;30.20
21335;DHT22;10826;52.536;13.432;2022-08-02T14:01:56;28.00;29.60
21335;DHT22;10826;52.536;13.432;2022-08-02T14:04:24;28.10;29.20
21335;DHT22;10826;52.536;13.432;2022-08-02T14:06:50;28.10;29.30
21335;DHT22;10826;52.536;13.432;2022-08-02T14:09:16;28.20;29.40
21335;DHT22;10826;52.536;13.432;2022-08-02T14:11:44;28.20;29.00
21335;DHT22;10826;52.536;13.432;2022-08-02T14:14:10;28.30;28.70
21335;DHT22;10826;52.536;13.432;2022-08-02T14:16:36;28.30;28.40
21335;DHT22;10826;52.536;13.432;2022-08-02T14:19:03;28.40;28.50
21335;DHT22;10826;52.536;13.432;2022-08-02T14:21:30;28.40;28.70
21335;DHT22;10826;52.536;13.432;2022-08-02T14:23:57;28.40;28.90
21335;DHT22;10826;52.536;13.432;2022-08-02T14:26:23;28.50;28.80
21335;DHT22;10826;52.536;13.432;2022-08-02T14:28:48;28.50;28.60
21335;DHT22;10826;52.536;13.432;2022-08-02T14:31:14;28.50;28.80
21335;DHT22;10826;52.536;13.432;2022-08-02T14:33:40;28.60;29.00
21335;DHT22;10826;52.536;13.432;2022-08-02T14:36:06;28.60;28.90
21335;DHT22;10826;52.536;13.432;2022-08-02T14:38:32;28.70;28.80
21335;DHT22;10826;52.536;13.432;2022-08-02T14:41:01;28.70;29.10
21335;DHT22;10826;52.536;13.432;2022-08-02T14:43:27;28.80;28.60
21335;DHT22;10826;52.536;13.432;2022-08-02T14:46:11;28.80;28.10
21335;DHT22;10826;52.536;13.432;2022-08-02T14:48:37;28.90;28.00
21335;DHT22;10826;52.536;13.432;2022-08-02T14:51:03;28.90;28.10
21335;DHT22;10826;52.536;13.432;2022-08-02T14:53:29;28.90;28.10
21335;DHT22;10826;52.536;13.432;2022-08-02T14:55:55;28.90;27.80
21335;DHT22;10826;52.536;13.432;2022-08-02T14:58:21;28.90;27.60
21335;DHT22;10826;52.536;13.432;2022-08-02T15:00:48;28.90;27.80
21335;DHT22;10826;52.536;13.432;2022-08-02T15:03:13;28.90;27.80
21335;DHT22;10826;52.536;13.432;2022-08-02T15:05:40;29.00;28.30
21335;DHT22;10826;52.536;13.432;2022-08-02T15:08:06;29.00;27.90
21335;DHT22;10826;52.536;13.432;2022-08-02T15:10:32;29.00;27.80
21335;DHT22;10826;52.536;13.432;2022-08-02T15:12:58;29.00;27.90
21335;DHT22;10826;52.536;13.432;2022-08-02T15:15:24;29.00;27.90
21335;DHT22;10826;52.536;13.432;2022-08-02T15:17:51;29.10;27.70
21335;DHT22;10826;52.536;13.432;2022-08-02T15:20:17;29.10;27.70
21335;DHT22;10826;52.536;13.432;2022-08-02T15:22:43;29.10;27.70
21335;DHT22;10826;52.536;13.432;2022-08-02T15:25:12;29.10;27.10
21335;DHT22;10826;52.536;13.432;2022-08-02T15:27:38;29.10;27.80
21335;DHT22;10826;52.536;13.432;2022-08-02T15:30:04;29.10;27.50
21335;DHT22;10826;52.536;13.432;2022-08-02T15:32:31;29.10;27.60
21335;DHT22;10826;52.536;13.432;2022-08-02T15:34:57;29.10;27.60
21335;DHT22;10826;52.536;13.432;2022-08-02T15:37:23;29.10;27.80
21335;DHT22;10826;52.536;13.432;2022-08-02T15:39:49;29.20;27.90
21335;DHT22;10826;52.536;13.432;2022-08-02T15:42:16;29.20;28.00
21335;DHT22;10826;52.536;13.432;2022-08-02T15:44:43;29.20;28.60
21335;DHT22;10826;52.536;13.432;2022-08-02T15:47:10;29.30;27.80
21335;DHT22;10826;52.536;13.432;2022-08-02T15:49:36;29.30;27.40
21335;DHT22;10826;52.536;13.432;2022-08-02T15:52:02;29.40;27.30
21335;DHT22;10826;52.536;13.432;2022-08-02T15:54:29;29.40;27.50
21335;DHT22;10826;52.536;13.432;2022-08-02T15:56:55;29.50;27.90